This is the latest recevied weather packets stored in our database for station/object G4GVZ-1. If no packets are shown the sender has not sent any weather packets the latest 10 day(s).
| Time | Temp. | Humidity | Pressure | Rain* | Wind** | Luminosity | Snow |
|---|---|---|---|---|---|---|---|
| 1777816848 | 17.22° C | 66% | 1008.6 hPa | 0 mm | - | - | - |
| 1777815948 | 18.89° C | 63% | 1008.7 hPa | 0 mm | - | - | - |
| 1777815048 | 18.89° C | 62% | 1008.7 hPa | 0 mm | - | - | - |
| 1777814147 | 18.33° C | 65% | 1008.7 hPa | 0 mm | - | - | - |
| 1777813249 | 17.22° C | 68% | 1008.7 hPa | 0 mm | - | - | - |
| 1777812349 | 16.67° C | 69% | 1008.7 hPa | 0 mm | - | - | - |
| 1777811449 | 16.67° C | 67% | 1008.8 hPa | 0 mm | - | - | - |
| 1777810549 | 16.67° C | 68% | 1008.9 hPa | 0 mm | - | - | - |
| 1777809648 | 16.67° C | 68% | 1008.8 hPa | 0 mm | - | - | - |
| 1777808748 | 17.22° C | 68% | 1008.8 hPa | 0 mm | - | - | - |
| 1777807848 | 16.11° C | 71% | 1009 hPa | 0 mm | - | - | - |
| 1777806948 | 16.67° C | 69% | 1009.1 hPa | 0 mm | - | - | - |
| 1777806048 | 16.67° C | 69% | 1009 hPa | 0 mm | - | - | - |
| 1777805150 | 16.11° C | 72% | 1009 hPa | 0 mm | - | - | - |
| 1777804250 | 15.56° C | 73% | 1009 hPa | 0 mm | - | - | - |
| 1777803350 | 15° C | 78% | 1009.1 hPa | 0 mm | - | - | - |
| 1777802450 | 14.44° C | 77% | 1009.1 hPa | 0 mm | - | - | - |
| 1777801549 | 13.89° C | 79% | 1009.1 hPa | 0 mm | - | - | - |
| 1777800649 | 14.44° C | 79% | 1009 hPa | 0 mm | - | - | - |
| 1777799751 | 13.33° C | 83% | 1009.1 hPa | 0 mm | - | - | - |
| 1777798852 | 13.33° C | 83% | 1009.2 hPa | 0 mm | - | - | - |
| 1777797951 | 13.33° C | 83% | 1009.3 hPa | 0 mm | - | - | - |
| 1777797050 | 12.78° C | 86% | 1009.3 hPa | 0 mm | - | - | - |
| 1777796150 | 12.22° C | 90% | 1009.2 hPa | 0 mm | - | - | - |
| 1777795250 | 12.22° C | 90% | 1009.1 hPa | 0 mm | - | - | - |
* Rain latest hour (hover to see other rain measurements)
** Current wind speed in m/s (hover to see current wind gust speed)